Terminal Aerodrome Forecast
Issued by NWS

Home | Current Version | Previous Version | Text Only | Print | Product List | Glossary On
Versions: 1 2 3 4 5 6 7 8 9 10 11 12 13
000
FTUS45 KRIW 230236 AAA
TAFRKS
TAF AMD
KRKS 230236Z 2303/2324 30013KT P6SM -RA SCT008 BKN020
      TEMPO 2303/2306 30014G22KT BKN008
     FM230600 VRB06KT P6SM SCT020 BKN045
     FM231200 07009KT P6SM FEW005 BKN010 OVC020
     FM231800 05015G25KT P6SM SCT015 SCT040=

USA.gov is the U.S. government's official web portal to all federal, state and local government web resources and services.